Time;durP1;ratioP1;P1;durP2;ratioP2;P2;SDS_P1;SDS_P2;PMS_P1;PMS_P2;Temp;Humidity;BMP_temperature;BMP_pressure;BME280_temperature;BME280_humidity;BME280_pressure;Samples;Min_cycle;Max_cycle;Signal;HPM_P1;HPM_P2
2023/12/23 00:00:17;;;;;;;;;2.00;2.00;;;;;11.27;69.96;101482.94;4995097;28;45585;-77
2023/12/23 00:02:43;;;;;;;;;1.00;1.00;;;;;11.63;70.08;101535.84;4999385;28;45495;-79
2023/12/23 00:05:08;;;;;;;;;2.00;2.00;;;;;11.53;70.64;101543.75;5002650;28;45656;-77
2023/12/23 00:07:35;;;;;;;;;0.67;0.67;;;;;11.63;70.42;101571.31;4996134;28;45649;-78
2023/12/23 00:10:01;;;;;;;;;2.00;0.67;;;;;11.52;70.31;101555.38;4994994;28;45489;-79
2023/12/23 00:12:27;;;;;;;;;1.00;1.00;;;;;11.33;70.07;101508.19;4995117;28;45363;-80
2023/12/23 00:14:52;;;;;;;;;2.00;0.67;;;;;11.63;70.26;101554.50;4989468;28;45339;-78
2023/12/23 00:17:17;;;;;;;;;1.33;1.00;;;;;11.54;70.11;101545.44;4997575;28;45458;-75
2023/12/23 00:19:43;;;;;;;;;3.33;1.00;;;;;11.55;70.00;101544.47;4995918;28;45516;-76
2023/12/23 00:22:08;;;;;;;;;3.00;2.00;;;;;11.73;70.29;101569.53;4997649;28;45599;-78
2023/12/23 00:24:33;;;;;;;;;3.00;1.00;;;;;11.74;70.31;101571.22;4992863;28;45529;-78
2023/12/23 00:26:59;;;;;;;;;4.00;2.00;;;;;11.41;70.45;101516.38;4996897;28;45525;-76
2023/12/23 00:29:25;;;;;;;;;4.00;2.00;;;;;11.80;70.29;101592.03;4996423;28;45508;-78
2023/12/23 00:31:50;;;;;;;;;1.67;1.00;;;;;11.59;70.20;101551.22;4997771;28;45494;-79
2023/12/23 00:34:16;;;;;;;;;2.00;2.00;;;;;11.41;70.17;101526.16;4964747;28;45443;-79
2023/12/23 00:36:41;;;;;;;;;1.00;1.00;;;;;11.79;70.36;101590.34;4998065;28;46826;-79
2023/12/23 00:39:06;;;;;;;;;0.00;0.00;;;;;11.54;70.97;101543.63;4996614;28;45383;-78
2023/12/23 00:41:32;;;;;;;;;1.00;1.00;;;;;11.47;71.10;101528.31;4995823;28;45387;-77
2023/12/23 00:43:57;;;;;;;;;2.33;1.00;;;;;11.76;71.69;101579.09;4996586;28;45743;-77
2023/12/23 00:46:23;;;;;;;;;1.00;1.00;;;;;11.83;71.38;101583.81;4996110;28;46922;-77
2023/12/23 00:48:48;;;;;;;;;1.00;0.75;;;;;11.18;71.71;101481.03;4996815;28;45488;-77
2023/12/23 00:51:13;;;;;;;;;1.00;1.00;;;;;11.86;71.52;101580.03;4996499;28;45733;-76
2023/12/23 00:53:39;;;;;;;;;2.00;2.00;;;;;11.69;71.67;101548.63;4996304;28;45625;-78
2023/12/23 00:56:05;;;;;;;;;0.00;0.00;;;;;11.53;71.31;101514.47;4996143;28;45353;-77
2023/12/23 00:58:30;;;;;;;;;3.00;1.50;;;;;11.85;71.24;101581.84;4994775;28;45374;-77
2023/12/23 01:00:55;;;;;;;;;2.00;2.00;;;;;11.44;70.80;101520.59;4988235;28;45327;-77
2023/12/23 01:03:21;;;;;;;;;2.00;2.00;;;;;11.70;70.94;101547.66;4996408;28;45501;-75
2023/12/23 01:05:46;;;;;;;;;3.00;2.00;;;;;11.86;70.58;101572.03;4988362;28;45426;-76
2023/12/23 01:08:11;;;;;;;;;1.75;1.75;;;;;11.31;70.27;101466.69;5007705;28;45356;-79
2023/12/23 01:10:37;;;;;;;;;2.00;1.00;;;;;11.86;70.60;101570.22;4993345;28;45650;-78
2023/12/23 01:13:02;;;;;;;;;3.33;1.00;;;;;11.76;70.14;101553.28;4987770;28;45422;-79
2023/12/23 01:15:28;;;;;;;;;0.00;0.00;;;;;11.62;70.35;101526.16;4995814;28;45462;-76
2023/12/23 01:17:53;;;;;;;;;1.00;1.00;;;;;11.76;69.54;101547.94;4994088;28;45490;-78
2023/12/23 01:20:19;;;;;;;;;0.33;0.33;;;;;11.57;69.58;101537.19;4990056;28;45906;-76
2023/12/23 01:22:44;;;;;;;;;0.67;0.00;;;;;11.68;69.79;101558.44;4995602;28;45505;-76
2023/12/23 01:25:09;;;;;;;;;0.00;0.00;;;;;11.64;70.04;101562.34;4987028;28;45608;-79
2023/12/23 01:27:35;;;;;;;;;1.67;0.33;;;;;11.50;70.36;101538.69;4994500;28;45565;-76
2023/12/23 01:30:00;;;;;;;;;0.75;0.75;;;;;11.54;70.40;101551.63;4987755;28;45478;-78
2023/12/23 01:32:25;;;;;;;;;1.33;0.00;;;;;11.47;69.52;101544.28;4996042;28;45445;-78
2023/12/23 01:34:51;;;;;;;;;5.00;2.00;;;;;11.50;69.98;101544.88;4995053;28;45934;-77
2023/12/23 01:37:16;;;;;;;;;1.00;1.00;;;;;11.65;69.82;101565.84;5008025;28;45555;-78
2023/12/23 01:39:42;;;;;;;;;4.00;2.33;;;;;11.63;69.35;101563.31;4991665;28;45354;-78
2023/12/23 01:42:07;;;;;;;;;0.33;0.33;;;;;11.65;69.43;101574.69;4994634;28;45532;-77
2023/12/23 01:44:32;;;;;;;;;1.67;1.00;;;;;11.75;69.64;101588.03;5006625;28;47474;-75
2023/12/23 01:47:00;;;;;;;;;2.00;1.67;;;;;11.77;70.10;101586.94;4992060;28;45277;-76
2023/12/23 01:49:27;;;;;;;;;2.67;1.00;;;;;11.78;69.59;101570.00;4995008;28;45316;-77
2023/12/23 01:51:54;;;;;;;;;1.67;0.00;;;;;11.65;69.55;101540.06;4995384;28;45503;-77
2023/12/23 01:54:22;;;;;;;;;0.67;0.00;;;;;11.81;69.40;101566.22;4994450;28;46034;-76
2023/12/23 01:56:49;;;;;;;;;2.67;1.00;;;;;11.84;69.41;101553.50;4995085;28;45498;-79
2023/12/23 01:59:16;;;;;;;;;0.00;0.00;;;;;11.66;68.92;101507.13;4994371;28;45548;-76
2023/12/23 02:01:43;;;;;;;;;0.33;0.00;;;;;11.35;68.85;101460.13;4994494;28;45578;-77
2023/12/23 02:04:08;;;;;;;;;1.50;0.75;;;;;11.72;68.42;101529.72;4994502;28;45647;-76
2023/12/23 02:06:34;;;;;;;;;0.00;0.00;;;;;11.78;68.59;101540.69;4986500;28;45564;-77
2023/12/23 02:09:01;;;;;;;;;0.00;0.00;;;;;11.74;68.41;101523.28;4994509;28;45481;-76
2023/12/23 02:11:44;;;;;;;;;1.67;1.00;;;;;11.43;67.88;101473.63;4994864;28;45661;-78
2023/12/23 02:14:26;;;;;;;;;0.00;0.00;;;;;11.69;67.65;101509.50;4984284;28;47451;-76
2023/12/23 02:16:52;;;;;;;;;0.33;0.00;;;;;11.84;67.65;101542.88;4994316;28;45480;-76
2023/12/23 02:19:18;;;;;;;;;1.00;0.00;;;;;11.86;67.90;101538.25;4994492;28;45461;-77
2023/12/23 02:21:44;;;;;;;;;1.33;0.67;;;;;11.69;67.53;101504.19;4994678;28;45450;-77
2023/12/23 02:24:09;;;;;;;;;1.00;0.00;;;;;11.58;67.42;101488.28;4993901;28;45497;-77
2023/12/23 02:26:36;;;;;;;;;0.00;0.00;;;;;11.84;67.23;101529.53;4994734;28;45534;-78
2023/12/23 02:29:02;;;;;;;;;0.00;0.00;;;;;11.80;67.18;101514.78;4994322;28;45354;-76
2023/12/23 02:31:29;;;;;;;;;2.50;0.00;;;;;11.94;66.51;101544.72;4994591;28;45333;-77
2023/12/23 02:33:55;;;;;;;;;0.00;0.00;;;;;11.75;66.00;101506.31;4993893;28;45382;-76
2023/12/23 02:36:21;;;;;;;;;0.00;0.00;;;;;11.71;65.96;101507.56;4993080;28;45324;-77
2023/12/23 02:38:50;;;;;;;;;0.00;0.00;;;;;11.93;66.08;101545.69;4993205;28;45454;-76
2023/12/23 02:41:15;;;;;;;;;0.00;0.00;;;;;11.94;65.81;101542.88;4993875;28;45496;-76
2023/12/23 02:43:41;;;;;;;;;0.00;0.00;;;;;11.83;65.31;101525.19;4993318;28;45497;-76
2023/12/23 02:46:06;;;;;;;;;0.00;0.00;;;;;11.74;65.90;101511.78;4994739;28;45686;-76
2023/12/23 02:48:31;;;;;;;;;0.00;0.00;;;;;11.90;66.02;101529.97;5008868;28;45358;-78
2023/12/23 02:50:57;;;;;;;;;0.00;0.00;;;;;11.87;65.54;101517.75;4994505;28;45387;-76
2023/12/23 02:53:22;;;;;;;;;2.67;0.00;;;;;11.87;65.77;101534.59;4994096;28;45746;-77
2023/12/23 02:55:47;;;;;;;;;1.00;0.00;;;;;11.90;65.74;101530.81;4992958;28;45378;-76
2023/12/23 02:58:13;;;;;;;;;0.00;0.00;;;;;11.79;65.30;101513.09;4994223;28;45625;-77
2023/12/23 03:00:38;;;;;;;;;0.33;0.33;;;;;11.91;65.48;101534.31;4994428;28;45643;-78
2023/12/23 03:03:04;;;;;;;;;1.00;0.00;;;;;11.91;65.86;101529.84;4994409;28;45329;-78
2023/12/23 03:05:29;;;;;;;;;0.00;0.00;;;;;11.83;65.63;101524.34;4994798;28;45348;-78
2023/12/23 03:07:55;;;;;;;;;0.00;0.00;;;;;11.96;65.59;101535.59;4995394;28;45460;-77
2023/12/23 03:10:20;;;;;;;;;0.00;0.00;;;;;11.99;65.67;101537.16;4997881;28;45347;-76
2023/12/23 03:12:45;;;;;;;;;0.67;0.00;;;;;11.62;65.57;101468.41;4998229;28;45387;-79
2023/12/23 03:15:11;;;;;;;;;0.00;0.00;;;;;11.98;65.12;101540.78;4998698;28;45429;-78
2023/12/23 03:17:36;;;;;;;;;1.00;1.00;;;;;11.99;65.60;101547.81;4994914;28;45453;-77
2023/12/23 03:20:02;;;;;;;;;0.00;0.00;;;;;11.88;65.13;101530.09;4992644;28;45692;-76
2023/12/23 03:22:28;;;;;;;;;0.00;0.00;;;;;12.00;64.78;101557.50;4984439;28;46435;-78
2023/12/23 03:24:53;;;;;;;;;0.00;0.00;;;;;11.93;65.18;101548.34;4991519;28;45213;-77
2023/12/23 03:27:19;;;;;;;;;0.00;0.00;;;;;12.01;64.57;101556.50;4987076;28;45415;-76
2023/12/23 03:29:44;;;;;;;;;0.33;0.00;;;;;12.02;64.61;101551.09;4993675;28;46040;-78
2023/12/23 03:32:10;;;;;;;;;0.00;0.00;;;;;11.97;64.55;101544.44;4984040;28;46930;-75
2023/12/23 03:34:35;;;;;;;;;0.00;0.00;;;;;11.95;64.52;101530.41;4994400;28;45486;-78
2023/12/23 03:37:01;;;;;;;;;1.67;0.00;;;;;12.01;64.45;101532.53;4994289;28;45512;-77
2023/12/23 03:39:26;;;;;;;;;2.00;0.00;;;;;12.02;64.65;101527.09;4994082;28;45324;-78
2023/12/23 03:41:51;;;;;;;;;1.00;0.00;;;;;11.81;64.62;101480.97;4992347;28;45842;-76
2023/12/23 03:44:17;;;;;;;;;0.00;0.00;;;;;11.55;64.36;101425.47;4992575;28;45355;-77
2023/12/23 03:46:42;;;;;;;;;0.00;0.00;;;;;11.87;64.86;101460.00;4992974;28;45516;-76
2023/12/23 03:49:07;;;;;;;;;0.00;0.00;;;;;11.80;64.78;101461.47;4995038;28;45577;-78
2023/12/23 03:51:33;;;;;;;;;0.00;0.00;;;;;11.91;65.43;101486.38;4997238;28;45343;-77
2023/12/23 03:53:58;;;;;;;;;0.33;0.33;;;;;11.88;65.67;101475.00;4996411;28;45510;-75
2023/12/23 03:56:23;;;;;;;;;1.00;1.00;;;;;11.83;65.22;101479.91;4995393;28;45450;-76
2023/12/23 03:58:49;;;;;;;;;0.33;0.33;;;;;11.94;65.54;101497.59;4996256;28;45534;-76
2023/12/23 04:01:16;;;;;;;;;0.00;0.00;;;;;11.93;65.72;101506.56;4995625;28;46161;-78
2023/12/23 04:03:42;;;;;;;;;0.00;0.00;;;;;11.93;65.31;101505.72;4996506;28;45410;-77
2023/12/23 04:06:07;;;;;;;;;1.00;0.00;;;;;11.88;65.63;101498.13;4996358;28;45497;-77
2023/12/23 04:08:33;;;;;;;;;0.00;0.00;;;;;11.80;65.33;101481.97;4996901;28;45329;-77
2023/12/23 04:10:59;;;;;;;;;0.00;0.00;;;;;11.71;65.84;101472.94;4995905;28;45349;-76
2023/12/23 04:13:24;;;;;;;;;3.33;0.00;;;;;11.91;65.67;101507.69;4988461;28;45764;-77
2023/12/23 04:15:49;;;;;;;;;0.00;0.00;;;;;11.68;66.13;101465.22;4997160;28;45724;-76
2023/12/23 04:18:14;;;;;;;;;0.00;0.00;;;;;11.70;66.21;101468.56;4996389;28;45343;-78
2023/12/23 04:20:40;;;;;;;;;0.25;0.00;;;;;11.69;66.88;101461.56;4994239;28;45598;-77
2023/12/23 04:23:05;;;;;;;;;1.75;0.00;;;;;11.78;67.69;101482.09;4996251;28;45705;-75
2023/12/23 04:25:31;;;;;;;;;0.00;0.00;;;;;11.73;68.35;101486.94;4996449;28;45437;-77
2023/12/23 04:27:56;;;;;;;;;0.00;0.00;;;;;11.74;69.09;101474.47;4988092;28;45305;-76
2023/12/23 04:30:21;;;;;;;;;0.00;0.00;;;;;11.66;70.23;101461.84;4995368;28;46104;-75
2023/12/23 04:32:47;;;;;;;;;0.00;0.00;;;;;11.71;70.18;101486.25;4995879;28;45448;-75
2023/12/23 04:35:12;;;;;;;;;0.00;0.00;;;;;11.69;71.41;101474.03;4996150;28;45571;-76
2023/12/23 04:37:41;;;;;;;;;0.00;0.00;;;;;11.55;71.17;101448.59;4995761;28;45302;-77
2023/12/23 04:40:07;;;;;;;;;1.00;0.00;;;;;11.69;71.49;101482.03;4994893;28;45471;-77
2023/12/23 04:42:33;;;;;;;;;0.00;0.00;;;;;11.51;70.92;101455.16;4994990;28;45470;-79
2023/12/23 04:44:58;;;;;;;;;0.00;0.00;;;;;11.72;70.93;101485.25;4995490;28;45800;-77
2023/12/23 04:47:24;;;;;;;;;0.00;0.00;;;;;11.69;71.17;101474.88;4995958;28;46259;-77
2023/12/23 04:49:49;;;;;;;;;1.00;0.00;;;;;11.79;70.58;101489.09;4993747;28;46084;-78
2023/12/23 04:52:14;;;;;;;;;0.00;0.00;;;;;11.80;70.25;101489.94;4995389;28;45394;-76
2023/12/23 04:54:40;;;;;;;;;0.00;0.00;;;;;11.80;70.39;101485.47;5007779;28;45756;-76
2023/12/23 04:57:05;;;;;;;;;0.00;0.00;;;;;11.73;69.89;101473.63;4992226;28;45360;-77
2023/12/23 04:59:31;;;;;;;;;0.00;0.00;;;;;11.66;69.83;101472.50;4994074;28;46311;-75
2023/12/23 05:01:56;;;;;;;;;2.00;1.00;;;;;11.71;69.11;101478.25;4995487;28;45575;-77
2023/12/23 05:04:21;;;;;;;;;0.00;0.00;;;;;11.76;68.96;101481.34;4995465;28;45767;-77
2023/12/23 05:06:47;;;;;;;;;0.00;0.00;;;;;11.79;68.91;101477.59;4996710;28;45486;-76
2023/12/23 05:09:14;;;;;;;;;0.00;0.00;;;;;11.77;68.92;101483.03;4994927;28;46228;-78
2023/12/23 05:11:40;;;;;;;;;0.00;0.00;;;;;11.65;68.46;101460.16;4992907;28;45313;-75
2023/12/23 05:14:05;;;;;;;;;1.00;0.00;;;;;11.78;68.38;101484.75;4994743;28;45522;-77
2023/12/23 05:16:30;;;;;;;;;1.00;0.00;;;;;11.75;67.83;101482.34;4987876;28;45518;-78
2023/12/23 05:18:55;;;;;;;;;0.00;0.00;;;;;11.79;67.99;101481.13;4995346;28;45305;-76
2023/12/23 05:21:21;;;;;;;;;1.00;0.00;;;;;11.78;67.81;101483.88;4987142;28;45269;-76
2023/12/23 05:23:46;;;;;;;;;0.00;0.00;;;;;11.71;66.48;101478.25;4991439;28;45433;-76
2023/12/23 05:26:16;;;;;;;;;0.00;0.00;;;;;11.58;67.17;101453.66;4991606;28;45567;-77
2023/12/23 05:28:42;;;;;;;;;2.00;0.00;;;;;11.64;66.78;101470.94;4994548;28;45295;-76
2023/12/23 05:31:07;;;;;;;;;0.00;0.00;;;;;11.58;66.98;101453.66;4995814;28;45384;-77
2023/12/23 05:33:32;;;;;;;;;0.25;0.00;;;;;11.72;66.41;101471.94;4995135;28;45358;-77
2023/12/23 05:35:58;;;;;;;;;0.00;0.00;;;;;11.50;66.52;101435.69;4995151;28;45442;-75
2023/12/23 05:38:23;;;;;;;;;0.00;0.00;;;;;11.67;66.30;101471.50;4994727;28;45820;-75
2023/12/23 05:40:49;;;;;;;;;0.00;0.00;;;;;11.63;65.82;101463.94;4994916;28;46093;-78
2023/12/23 05:43:15;;;;;;;;;0.00;0.00;;;;;11.74;65.88;101479.81;4994935;28;45580;-78
2023/12/23 05:45:40;;;;;;;;;0.00;0.00;;;;;11.74;66.22;101464.66;4994771;28;45458;-77
2023/12/23 05:48:06;;;;;;;;;0.00;0.00;;;;;11.70;65.51;101460.59;4994367;28;45599;-78
2023/12/23 05:50:31;;;;;;;;;1.00;0.00;;;;;11.75;65.06;101461.03;4994355;28;45335;-75
2023/12/23 05:52:57;;;;;;;;;0.00;0.00;;;;;11.44;64.81;101420.25;4987862;28;45715;-77
2023/12/23 05:55:22;;;;;;;;;1.00;1.00;;;;;11.73;64.95;101457.66;4995714;28;45388;-75
2023/12/23 05:57:47;;;;;;;;;0.00;0.00;;;;;11.76;64.87;101462.72;4994398;28;45565;-77
2023/12/23 06:00:13;;;;;;;;;0.00;0.00;;;;;11.76;65.34;101473.38;4994713;28;45255;-78
2023/12/23 06:02:39;;;;;;;;;0.00;0.00;;;;;11.74;65.20;101462.00;4993971;28;45501;-78
2023/12/23 06:05:05;;;;;;;;;1.33;0.00;;;;;11.74;65.23;101459.34;4995077;28;45298;-78
2023/12/23 06:07:30;;;;;;;;;1.00;1.00;;;;;11.76;64.83;101459.19;4994390;28;46199;-77
2023/12/23 06:09:55;;;;;;;;;1.00;0.00;;;;;11.22;64.83;101373.34;4997384;28;45435;-78
2023/12/23 06:12:21;;;;;;;;;0.00;0.00;;;;;11.59;64.57;101436.69;4996858;28;45831;-78
2023/12/23 06:14:46;;;;;;;;;1.00;1.00;;;;;11.62;64.95;101447.09;4996338;28;45819;-76
2023/12/23 06:17:11;;;;;;;;;0.00;0.00;;;;;11.52;64.62;101424.91;4994703;28;45413;-76
2023/12/23 06:19:37;;;;;;;;;0.00;0.00;;;;;11.80;64.34;101474.81;4994435;28;45541;-75
2023/12/23 06:22:02;;;;;;;;;0.67;0.33;;;;;11.72;63.99;101455.97;4994761;28;45525;-76
2023/12/23 06:24:27;;;;;;;;;0.00;0.00;;;;;11.81;64.11;101487.19;4977653;28;45470;-76
2023/12/23 06:26:53;;;;;;;;;0.00;0.00;;;;;11.58;64.00;101438.50;4993229;28;46159;-75
2023/12/23 06:29:18;;;;;;;;;1.00;1.00;;;;;11.70;63.78;101463.25;4994348;28;45536;-76
2023/12/23 06:31:43;;;;;;;;;3.00;0.00;;;;;11.82;64.12;101491.53;4994900;28;45347;-77
2023/12/23 06:34:09;;;;;;;;;0.33;0.33;;;;;11.83;64.35;101503.88;4994687;28;45406;-77
2023/12/23 06:36:34;;;;;;;;;0.00;0.00;;;;;11.85;64.57;101491.25;4993920;28;45409;-78
2023/12/23 06:39:00;;;;;;;;;0.00;0.00;;;;;11.67;63.80;101458.19;4992664;28;45444;-79
2023/12/23 06:41:25;;;;;;;;;1.33;0.67;;;;;11.84;64.31;101483.41;4994559;28;45401;-78
2023/12/23 06:43:50;;;;;;;;;0.00;0.00;;;;;11.86;63.99;101479.63;4993311;28;45508;-77
2023/12/23 06:46:16;;;;;;;;;0.67;0.00;;;;;11.92;64.34;101482.72;4994120;28;45985;-78
2023/12/23 06:48:41;;;;;;;;;1.00;0.00;;;;;11.85;63.75;101471.75;4994014;28;45217;-78
2023/12/23 06:51:06;;;;;;;;;0.33;0.33;;;;;11.87;63.73;101465.31;4986643;28;45459;-78
2023/12/23 06:53:32;;;;;;;;;0.00;0.00;;;;;11.92;64.32;101477.38;5009771;28;45304;-77
2023/12/23 06:55:57;;;;;;;;;1.00;1.00;;;;;11.92;63.92;101472.91;4993998;28;45435;-77
2023/12/23 06:58:23;;;;;;;;;0.00;0.00;;;;;11.95;64.37;101485.09;4993211;28;45407;-79
2023/12/23 07:00:48;;;;;;;;;1.00;1.00;;;;;11.96;63.87;101489.47;4993847;28;45444;-77
2023/12/23 07:03:13;;;;;;;;;0.00;0.00;;;;;11.87;64.20;101485.78;4993870;28;45588;-79
2023/12/23 07:05:39;;;;;;;;;3.00;0.00;;;;;11.95;64.15;101493.94;4993393;28;45570;-76
2023/12/23 07:08:04;;;;;;;;;1.00;1.00;;;;;11.90;64.15;101482.84;4983607;28;45585;-78
2023/12/23 07:10:30;;;;;;;;;1.00;1.00;;;;;11.88;64.26;101482.16;4993380;28;45612;-78
2023/12/23 07:12:55;;;;;;;;;0.00;0.00;;;;;11.84;64.10;101484.25;5002303;28;45618;-78
2023/12/23 07:15:21;;;;;;;;;0.33;0.00;;;;;11.94;64.09;101502.06;4994956;28;45612;-77
2023/12/23 07:17:47;;;;;;;;;0.75;0.00;;;;;11.73;64.19;101457.66;4993699;28;45359;-76
2023/12/23 07:20:13;;;;;;;;;0.00;0.00;;;;;11.73;63.90;101456.81;4994360;28;45496;-77
2023/12/23 07:22:38;;;;;;;;;3.33;2.33;;;;;11.97;64.25;101501.81;4994957;28;45473;-78
2023/12/23 07:25:05;;;;;;;;;2.00;1.00;;;;;11.83;64.03;101473.72;4998252;28;45584;-76
2023/12/23 07:27:30;;;;;;;;;0.00;0.00;;;;;11.80;64.15;101477.47;4999713;28;45357;-78
2023/12/23 07:29:56;;;;;;;;;0.00;0.00;;;;;12.00;64.22;101523.69;5002509;28;45480;-78
2023/12/23 07:32:21;;;;;;;;;0.00;0.00;;;;;11.70;63.95;101468.56;4998971;28;45566;-77
2023/12/23 07:34:46;;;;;;;;;1.00;1.00;;;;;11.95;64.32;101515.25;4997342;28;45500;-78
2023/12/23 07:37:12;;;;;;;;;0.00;0.00;;;;;12.02;64.00;101519.09;4997149;28;45445;-78
2023/12/23 07:39:37;;;;;;;;;0.00;0.00;;;;;12.03;63.92;101523.44;4997125;28;45662;-79
2023/12/23 07:42:03;;;;;;;;;9.67;8.67;;;;;12.03;64.23;101523.44;4997325;28;45288;-78
2023/12/23 07:44:28;;;;;;;;;1.00;1.00;;;;;11.40;64.14;101433.94;4996398;28;46002;-77
2023/12/23 07:46:54;;;;;;;;;0.67;0.67;;;;;11.54;63.94;101462.88;4997355;28;45307;-77
2023/12/23 07:49:19;;;;;;;;;1.33;0.00;;;;;12.04;64.28;101537.63;4996927;28;45356;-78
2023/12/23 07:51:45;;;;;;;;;1.00;0.00;;;;;11.90;64.39;101516.66;4997554;28;45291;-77
2023/12/23 07:54:11;;;;;;;;;2.00;1.00;;;;;12.03;64.35;101535.94;4997432;28;46122;-79
2023/12/23 07:56:36;;;;;;;;;1.00;0.00;;;;;12.05;64.16;101536.63;4993696;28;45396;-77
2023/12/23 07:59:02;;;;;;;;;2.00;0.00;;;;;12.05;64.08;101528.66;4993994;28;45688;-79
2023/12/23 08:01:27;;;;;;;;;2.00;0.00;;;;;12.04;64.29;101525.13;4996942;28;45481;-78
2023/12/23 08:03:55;;;;;;;;;0.00;0.00;;;;;12.05;64.20;101515.31;4997483;28;46027;-78
2023/12/23 08:06:21;;;;;;;;;2.33;1.33;;;;;12.06;64.49;101512.50;4996911;28;45426;-79
2023/12/23 08:08:47;;;;;;;;;0.75;0.00;;;;;12.03;64.35;101498.63;4998132;28;45272;-79
2023/12/23 08:11:13;;;;;;;;;0.50;0.50;;;;;11.92;64.73;101478.22;4997932;28;44862;-78
2023/12/23 08:13:40;;;;;;;;;0.67;0.33;;;;;12.07;64.24;101492.88;4997008;28;46271;-79
2023/12/23 08:16:07;;;;;;;;;2.00;0.00;;;;;12.12;64.25;101500.47;4996263;28;45400;-78
2023/12/23 08:18:32;;;;;;;;;1.25;1.25;;;;;11.63;64.15;101406.19;4997051;28;45366;-79
2023/12/23 08:20:57;;;;;;;;;0.00;0.00;;;;;12.12;64.52;101503.97;4996961;28;45568;-78
2023/12/23 08:23:23;;;;;;;;;1.67;1.00;;;;;11.97;64.76;101483.16;4996307;28;45443;-77
2023/12/23 08:25:48;;;;;;;;;1.00;1.00;;;;;11.80;64.89;101466.81;4998322;28;45382;-78
2023/12/23 08:28:14;;;;;;;;;0.67;0.67;;;;;12.07;64.76;101529.34;4998111;28;45642;-79
2023/12/23 08:30:40;;;;;;;;;0.33;0.00;;;;;12.09;64.62;101527.38;4997391;28;45337;-79
2023/12/23 08:33:05;;;;;;;;;1.00;0.00;;;;;12.10;64.65;101529.06;4999534;28;45469;-78
2023/12/23 08:35:31;;;;;;;;;0.00;0.00;;;;;11.75;64.45;101481.50;4997397;28;45506;-79
2023/12/23 08:37:58;;;;;;;;;0.00;0.00;;;;;12.12;64.84;101530.63;4997747;28;45366;-78
2023/12/23 08:40:23;;;;;;;;;3.00;2.00;;;;;10.77;64.63;101314.28;4989658;28;45514;-78
2023/12/23 08:42:49;;;;;;;;;0.00;0.00;;;;;12.12;64.97;101545.78;4996269;28;48882;-78
2023/12/23 08:45:14;;;;;;;;;1.00;0.75;;;;;11.79;64.72;101497.09;4989849;28;45470;-79
2023/12/23 08:47:39;;;;;;;;;1.00;1.00;;;;;12.13;64.65;101552.78;4997114;28;45687;-78
2023/12/23 08:50:05;;;;;;;;;2.00;0.00;;;;;11.84;64.93;101512.72;4996541;28;46082;-77
2023/12/23 08:52:30;;;;;;;;;0.50;0.00;;;;;11.52;65.08;101454.19;4996499;28;46192;-78
2023/12/23 08:54:56;;;;;;;;;3.00;0.75;;;;;11.88;64.79;101514.13;4995851;28;45516;-78
2023/12/23 08:57:21;;;;;;;;;0.00;0.00;;;;;12.16;64.92;101563.19;4995975;28;45432;-77
2023/12/23 08:59:46;;;;;;;;;1.33;1.33;;;;;12.12;64.87;101551.09;4994172;28;45682;-78
2023/12/23 09:02:12;;;;;;;;;0.00;0.00;;;;;11.41;64.76;101430.28;4981712;28;47067;-79
2023/12/23 09:04:37;;;;;;;;;3.75;0.00;;;;;12.17;65.00;101546.22;4987684;28;45429;-78
2023/12/23 09:07:03;;;;;;;;;0.50;0.50;;;;;11.41;64.52;101412.53;4997442;28;45537;-79
2023/12/23 09:09:28;;;;;;;;;1.75;1.00;;;;;11.80;64.76;101472.13;4997343;28;45529;-79
2023/12/23 09:11:53;;;;;;;;;2.00;1.00;;;;;12.23;64.84;101545.69;5000988;28;45123;-79
2023/12/23 09:14:19;;;;;;;;;0.00;0.00;;;;;12.25;65.17;101549.06;5005017;28;45503;-78
2023/12/23 09:16:44;;;;;;;;;3.00;1.00;;;;;12.33;65.30;101564.38;4999770;28;45871;-78
2023/12/23 09:19:10;;;;;;;;;2.00;0.33;;;;;12.37;65.13;101565.78;4988404;28;45518;-79
2023/12/23 09:21:35;;;;;;;;;1.00;0.00;;;;;12.14;64.71;101520.66;4997814;28;46268;-78
2023/12/23 09:24:00;;;;;;;;;0.00;0.00;;;;;12.41;65.05;101546.72;4997294;28;45510;-79
2023/12/23 09:26:26;;;;;;;;;0.67;0.67;;;;;12.48;64.88;101550.53;4997572;28;45497;-77
2023/12/23 09:28:52;;;;;;;;;1.33;1.33;;;;;12.51;64.44;101537.91;4997930;28;45573;-79
2023/12/23 09:31:17;;;;;;;;;0.67;0.33;;;;;12.47;64.84;101543.50;4987123;28;46207;-78
2023/12/23 09:33:43;;;;;;;;;0.00;0.00;;;;;11.92;64.70;101461.41;4996158;28;45539;-80
2023/12/23 09:36:08;;;;;;;;;0.00;0.00;;;;;12.55;64.84;101560.63;4995522;28;45485;-78
2023/12/23 09:38:34;;;;;;;;;3.00;0.00;;;;;12.32;65.38;101534.19;4995804;28;45490;-78
2023/12/23 09:40:59;;;;;;;;;1.00;1.00;;;;;12.56;65.30;101562.31;4995677;28;45557;-78
2023/12/23 09:43:25;;;;;;;;;1.00;0.00;;;;;12.47;65.38;101550.66;4995424;28;45355;-78
2023/12/23 09:45:52;;;;;;;;;1.00;0.00;;;;;12.48;65.92;101545.19;4995826;28;45518;-78
2023/12/23 09:48:18;;;;;;;;;2.25;1.25;;;;;12.37;65.71;101523.97;4986895;28;45505;-79
2023/12/23 09:50:44;;;;;;;;;1.00;0.00;;;;;12.58;65.51;101521.19;4995760;28;45406;-78
2023/12/23 09:53:13;;;;;;;;;2.75;1.00;;;;;12.59;66.27;101540.72;4994984;28;45542;-76
2023/12/23 09:55:39;;;;;;;;;0.00;0.00;;;;;12.48;65.90;101515.84;4995953;28;45421;-78
2023/12/23 09:58:05;;;;;;;;;1.75;1.75;;;;;12.60;65.95;101532.56;4995300;28;45534;-77
2023/12/23 10:00:31;;;;;;;;;0.00;0.00;;;;;12.52;65.95;101540.44;4995718;28;45484;-79
2023/12/23 10:02:57;;;;;;;;;1.67;1.67;;;;;12.11;65.57;101456.13;4995288;28;45443;-79
2023/12/23 10:05:26;;;;;;;;;0.50;0.25;;;;;12.28;65.81;101467.97;4995269;28;45491;-79
2023/12/23 10:07:56;;;;;;;;;0.00;0.00;;;;;12.42;65.81;101497.75;4988155;28;45589;-81
2023/12/23 10:10:23;;;;;;;;;0.00;0.00;;;;;12.62;65.77;101545.78;4964815;28;45533;-78
2023/12/23 10:12:49;;;;;;;;;2.50;0.50;;;;;12.62;66.23;101529.78;4992530;28;45328;-78
2023/12/23 10:15:14;;;;;;;;;0.25;0.00;;;;;12.64;65.88;101544.66;4996814;28;45528;-79
2023/12/23 10:17:39;;;;;;;;;0.00;0.00;;;;;12.58;65.48;101523.84;4996097;28;45520;-79
2023/12/23 10:20:05;;;;;;;;;0.00;0.00;;;;;12.63;66.02;101526.97;4995155;28;45462;-78
2023/12/23 10:22:31;;;;;;;;;1.00;1.00;;;;;12.13;65.72;101446.16;4994144;28;45500;-79
2023/12/23 10:24:57;;;;;;;;;1.00;1.00;;;;;12.33;65.64;101487.03;4995563;28;45757;-77
2023/12/23 10:27:25;;;;;;;;;1.00;1.00;;;;;11.94;65.28;101417.66;4994442;28;45426;-78
2023/12/23 10:29:55;;;;;;;;;0.00;0.00;;;;;12.62;65.87;101530.63;4994768;28;45559;-79
2023/12/23 10:32:24;;;;;;;;;2.00;1.67;;;;;12.07;66.13;101420.91;4993560;28;46034;-78
2023/12/23 10:34:53;;;;;;;;;0.25;0.25;;;;;12.81;66.04;101529.78;4994894;28;45990;-78
2023/12/23 10:37:19;;;;;;;;;0.25;0.00;;;;;12.67;65.76;101492.88;4985389;28;45500;-80
2023/12/23 10:40:11;;;;;;;;;0.25;0.00;;;;;12.88;66.13;101530.09;4995186;28;47140;-79
2023/12/23 10:42:39;;;;;;;;;0.75;0.00;;;;;12.91;65.95;101535.16;4994166;28;45479;-79
2023/12/23 10:45:07;;;;;;;;;0.25;0.00;;;;;12.85;66.04;101520.53;4995745;28;45448;-78
2023/12/23 10:47:33;;;;;;;;;0.67;0.67;;;;;12.61;65.86;101474.72;4986931;28;45521;-77
2023/12/23 10:49:59;;;;;;;;;0.25;0.00;;;;;12.40;66.02;101424.16;4995757;28;46156;-80
2023/12/23 10:52:26;;;;;;;;;2.50;0.00;;;;;12.74;65.87;101480.63;4995275;28;45418;-81
2023/12/23 10:54:52;;;;;;;;;1.50;0.50;;;;;12.57;66.55;101455.50;4988371;28;45498;-81
2023/12/23 10:57:21;;;;;;;;;0.00;0.00;;;;;13.00;66.35;101502.25;4994756;28;45484;-80
2023/12/23 10:59:48;;;;;;;;;1.50;0.50;;;;;12.92;66.26;101476.28;4993589;28;45332;-79
2023/12/23 11:02:19;;;;;;;;;0.33;0.33;;;;;12.58;65.90;101414.50;4995473;28;45509;-79
2023/12/23 11:04:51;;;;;;;;;2.00;1.50;;;;;12.95;66.05;101468.00;4995409;28;46028;-79
2023/12/23 11:07:20;;;;;;;;;0.00;0.00;;;;;12.75;66.19;101423.63;4996350;28;45533;-80
2023/12/23 11:09:48;;;;;;;;;0.50;0.00;;;;;12.34;65.98;101364.25;4995550;28;45469;-80
2023/12/23 11:12:15;;;;;;;;;1.25;0.00;;;;;12.82;66.46;101445.25;4995273;28;45573;-78
2023/12/23 11:14:40;;;;;;;;;2.67;2.33;;;;;12.83;66.06;101445.13;4995196;28;45437;-79
2023/12/23 11:17:22;;;;;;;;;0.50;0.50;;;;;12.53;66.20;101391.91;4977589;28;45504;-80